createdAt,value
2023-01-01T00:01:46.376Z,238.77
2023-01-01T00:04:49.191Z,261.80
2023-01-01T00:07:50.580Z,246.23
2023-01-01T00:10:52.043Z,210.23
2023-01-01T00:13:53.413Z,189.60
2023-01-01T00:16:56.740Z,156.03
2023-01-01T00:19:58.140Z,158.00
2023-01-01T00:22:59.551Z,140.57
2023-01-01T00:26:01.795Z,113.90
2023-01-01T00:29:04.218Z,120.97
2023-01-01T00:32:08.954Z,120.23
2023-01-01T00:35:12.920Z,116.57
2023-01-01T00:38:14.407Z,108.80
2023-01-01T00:41:16.991Z,95.27
2023-01-01T00:44:18.449Z,113.80
2023-01-01T00:47:19.854Z,109.57
2023-01-01T00:50:22.470Z,110.33
2023-01-01T00:53:23.987Z,109.37
2023-01-01T00:56:25.381Z,105.83
2023-01-01T00:59:28.945Z,106.63
2023-01-01T01:02:30.658Z,106.70
2023-01-01T01:05:33.108Z,105.63
2023-01-01T01:08:37.347Z,107.70
2023-01-01T01:11:38.749Z,108.23
2023-01-01T01:14:40.184Z,105.70
2023-01-01T01:17:41.643Z,106.60
2023-01-01T01:20:49.986Z,104.67
2023-01-01T01:23:52.332Z,107.27
2023-01-01T01:26:53.805Z,108.43
2023-01-01T01:29:55.195Z,106.93
2023-01-01T01:32:56.581Z,105.30
2023-01-01T01:35:58.404Z,113.97
2023-01-01T01:38:59.808Z,124.23
2023-01-01T01:42:03.500Z,121.07
2023-01-01T01:45:06.931Z,111.03
2023-01-01T01:48:09.532Z,108.37
2023-01-01T01:51:13.775Z,108.13
2023-01-01T01:54:20.645Z,98.77
2023-01-01T01:57:23.011Z,102.27
2023-01-01T02:00:24.472Z,95.27
2023-01-01T02:03:44.172Z,97.27
2023-01-01T02:06:45.609Z,96.23
2023-01-01T02:09:47.087Z,89.17
2023-01-01T02:12:48.585Z,93.23
2023-01-01T02:15:56.859Z,89.63
2023-01-01T02:19:12.169Z,76.40
2023-01-01T02:22:13.563Z,51.77
2023-01-01T02:25:29.530Z,38.23
2023-01-01T02:28:42.984Z,18.80
2023-01-01T02:31:52.291Z,16.03
2023-01-01T02:35:24.149Z,14.47
2023-01-01T02:38:41.129Z,12.23
2023-01-01T02:41:48.868Z,13.07
2023-01-01T02:44:54.669Z,12.63
2023-01-01T02:47:56.062Z,13.60
2023-01-01T02:51:03.735Z,17.87
2023-01-01T02:54:17.217Z,22.53
2023-01-01T02:57:43.789Z,25.07
2023-01-01T03:00:47.372Z,27.87
2023-01-01T03:04:10.620Z,27.53
2023-01-01T03:07:23.134Z,25.23
2023-01-01T03:10:46.002Z,28.60
2023-01-01T03:13:56.725Z,30.73
2023-01-01T03:17:07.442Z,32.07
2023-01-01T03:20:15.675Z,34.73
2023-01-01T03:23:24.894Z,34.83
2023-01-01T03:26:27.626Z,34.57
2023-01-01T03:29:33.542Z,35.30
2023-01-01T03:33:03.173Z,34.50
2023-01-01T03:36:13.202Z,34.37
2023-01-01T03:39:29.376Z,32.30
2023-01-01T03:42:41.355Z,34.73
2023-01-01T03:45:48.734Z,33.73
2023-01-01T03:49:02.564Z,34.63
2023-01-01T03:52:20.275Z,34.67
2023-01-01T03:55:38.376Z,34.13
2023-01-01T03:59:23.111Z,33.63
2023-01-01T04:02:31.135Z,32.37
2023-01-01T04:05:37.080Z,33.73
2023-01-01T04:08:39.059Z,32.93
2023-01-01T04:12:01.972Z,31.97
2023-01-01T04:15:06.325Z,34.43
2023-01-01T04:18:07.791Z,34.10
2023-01-01T04:21:09.293Z,33.40
2023-01-01T04:24:10.820Z,33.10
2023-01-01T04:27:12.221Z,31.50
2023-01-01T04:30:15.087Z,32.07
2023-01-01T04:33:16.502Z,33.90
2023-01-01T04:36:18.030Z,32.30
2023-01-01T04:39:19.460Z,32.07
2023-01-01T04:42:20.949Z,31.10
2023-01-01T04:45:22.435Z,31.17
2023-01-01T04:48:24.220Z,31.87
2023-01-01T04:51:25.761Z,28.47
2023-01-01T04:54:27.196Z,29.30
2023-01-01T04:57:32.111Z,28.43
2023-01-01T05:00:33.611Z,27.50
2023-01-01T05:03:35.035Z,28.50
2023-01-01T05:06:37.549Z,29.00
2023-01-01T05:09:38.968Z,28.63
2023-01-01T05:12:40.440Z,26.80
2023-01-01T05:15:41.833Z,26.53
2023-01-01T05:18:43.761Z,28.27
2023-01-01T05:21:46.374Z,28.17
2023-01-01T05:24:47.762Z,26.63
2023-01-01T05:27:49.163Z,27.43
2023-01-01T05:30:53.893Z,26.57
2023-01-01T05:33:55.830Z,24.47
2023-01-01T05:36:57.453Z,23.00
2023-01-01T05:39:58.831Z,22.83
2023-01-01T05:43:00.233Z,20.17
2023-01-01T05:46:07.343Z,20.30
2023-01-01T05:49:11.757Z,19.93
2023-01-01T05:52:13.203Z,17.97
2023-01-01T05:55:14.866Z,17.87
2023-01-01T05:58:16.413Z,17.80
2023-01-01T06:01:19.254Z,19.27
2023-01-01T06:04:20.817Z,18.50
2023-01-01T06:07:23.773Z,17.43
2023-01-01T06:10:25.147Z,18.73
2023-01-01T06:13:26.664Z,18.40
2023-01-01T06:16:30.136Z,18.00
2023-01-01T06:19:31.585Z,17.70
2023-01-01T06:22:36.611Z,17.53
2023-01-01T06:25:37.975Z,18.60
2023-01-01T06:28:40.310Z,17.07
2023-01-01T06:31:41.720Z,16.57
2023-01-01T06:34:43.107Z,16.20
2023-01-01T06:37:44.534Z,16.90
2023-01-01T06:40:56.039Z,16.33
2023-01-01T06:43:59.223Z,16.77
2023-01-01T06:47:00.645Z,16.10
2023-01-01T06:50:03.846Z,16.30
2023-01-01T06:53:05.217Z,15.07
2023-01-01T06:56:06.846Z,15.20
2023-01-01T06:59:08.257Z,12.80
2023-01-01T07:02:11.864Z,14.03
2023-01-01T07:05:13.459Z,13.10
2023-01-01T07:08:14.920Z,13.17
2023-01-01T07:11:16.359Z,13.37
2023-01-01T07:14:18.578Z,13.00
2023-01-01T07:17:19.959Z,13.20
2023-01-01T07:20:21.356Z,13.50
2023-01-01T07:23:23.059Z,12.73
2023-01-01T07:26:26.005Z,12.27
2023-01-01T07:29:27.900Z,12.73
2023-01-01T07:32:29.272Z,12.43
2023-01-01T07:35:30.647Z,11.57
2023-01-01T07:38:32.022Z,14.23
2023-01-01T07:41:33.459Z,13.70
2023-01-01T07:44:34.967Z,12.87
2023-01-01T07:47:36.377Z,13.27
2023-01-01T07:50:38.190Z,13.27
2023-01-01T07:53:39.604Z,13.37
2023-01-01T07:56:41.087Z,13.40
2023-01-01T07:59:42.740Z,12.63
2023-01-01T08:02:44.807Z,13.43
2023-01-01T08:05:46.443Z,14.03
2023-01-01T08:08:47.905Z,12.97
2023-01-01T08:11:51.397Z,12.53
2023-01-01T08:14:52.895Z,12.27
2023-01-01T08:18:02.906Z,11.27
2023-01-01T08:21:05.032Z,11.73
2023-01-01T08:24:06.794Z,12.37
2023-01-01T08:27:10.314Z,11.53
2023-01-01T08:30:13.476Z,10.70
2023-01-01T08:33:14.927Z,10.47
2023-01-01T08:36:16.673Z,8.33
2023-01-01T08:39:18.071Z,8.70
2023-01-01T08:42:19.534Z,8.30
2023-01-01T08:45:20.927Z,8.90
2023-01-01T08:48:27.179Z,8.87
2023-01-01T08:51:32.017Z,6.97
2023-01-01T08:54:33.393Z,5.73
2023-01-01T08:57:34.768Z,4.80
2023-01-01T09:00:36.235Z,3.80
2023-01-01T09:03:38.201Z,3.53
2023-01-01T09:06:39.967Z,3.83
2023-01-01T09:09:41.378Z,3.53
2023-01-01T09:12:43.872Z,3.03
2023-01-01T09:15:45.449Z,3.47
2023-01-01T09:18:46.875Z,3.60
2023-01-01T09:21:48.253Z,3.43
2023-01-01T09:24:49.624Z,3.73
2023-01-01T09:28:00.797Z,3.57
2023-01-01T09:31:05.009Z,3.80
2023-01-01T09:34:06.567Z,3.60
2023-01-01T09:37:08.004Z,4.47
2023-01-01T09:40:27.815Z,4.40
2023-01-01T09:43:58.178Z,4.50
2023-01-01T09:47:03.100Z,4.50
2023-01-01T09:50:31.883Z,4.43
2023-01-01T09:53:39.475Z,4.83
2023-01-01T09:56:44.702Z,4.23
2023-01-01T09:59:46.264Z,4.57
2023-01-01T10:03:06.206Z,4.17
2023-01-01T10:06:18.762Z,4.00
2023-01-01T10:09:32.285Z,3.40
2023-01-01T10:12:47.495Z,3.33
2023-01-01T10:15:58.710Z,3.47
2023-01-01T10:19:11.948Z,3.40
2023-01-01T10:22:22.262Z,3.17
2023-01-01T10:25:30.382Z,3.30
2023-01-01T10:28:55.113Z,3.27
2023-01-01T10:31:58.314Z,3.70
2023-01-01T10:35:02.035Z,3.20
2023-01-01T10:38:04.725Z,3.13
2023-01-01T10:41:15.243Z,3.70
2023-01-01T10:44:32.546Z,3.03
2023-01-01T10:47:33.991Z,3.20
2023-01-01T10:50:48.713Z,3.30
2023-01-01T10:53:52.261Z,3.40
2023-01-01T10:56:53.714Z,3.10
2023-01-01T11:00:09.204Z,3.30
2023-01-01T11:03:21.061Z,3.43
2023-01-01T11:06:29.833Z,3.10
2023-01-01T11:09:39.363Z,3.20
2023-01-01T11:16:02.512Z,2.70
2023-01-01T11:19:06.976Z,2.80
2023-01-01T11:22:35.310Z,3.33
2023-01-01T11:25:36.875Z,3.50
2023-01-01T11:28:39.554Z,3.03
2023-01-01T11:31:41.763Z,2.90
2023-01-01T11:34:44.360Z,2.80
2023-01-01T11:37:47.718Z,2.37
2023-01-01T11:40:52.866Z,2.73
2023-01-01T11:43:55.437Z,2.67
2023-01-01T11:46:57.979Z,3.07
2023-01-01T11:50:05.829Z,2.83
2023-01-01T11:53:27.911Z,2.40
2023-01-01T11:56:29.405Z,2.60
2023-01-01T11:59:43.574Z,3.10
2023-01-01T12:03:17.015Z,2.60
2023-01-01T12:06:34.434Z,2.53
2023-01-01T12:09:50.997Z,2.80
2023-01-01T12:13:05.427Z,2.70
2023-01-01T12:16:48.660Z,2.50
2023-01-01T12:20:02.691Z,3.00
2023-01-01T12:23:04.562Z,2.50
2023-01-01T12:26:08.746Z,2.37
2023-01-01T12:29:39.838Z,2.37
2023-01-01T12:32:53.056Z,2.80
2023-01-01T12:36:22.480Z,2.50
2023-01-01T12:40:01.407Z,2.80
2023-01-01T12:43:04.177Z,2.80
2023-01-01T12:46:35.757Z,3.03
2023-01-01T12:49:57.803Z,3.00
2023-01-01T12:53:10.739Z,3.20
2023-01-01T12:56:22.767Z,3.00
2023-01-01T12:59:28.702Z,2.63
2023-01-01T13:02:34.598Z,2.83
2023-01-01T13:05:43.026Z,3.10
2023-01-01T13:08:50.421Z,3.60
2023-01-01T13:12:01.703Z,3.80
2023-01-01T13:15:38.308Z,3.60
2023-01-01T13:18:39.968Z,3.33
2023-01-01T13:21:41.391Z,3.63
2023-01-01T13:24:42.799Z,5.53
2023-01-01T13:27:57.209Z,5.17
2023-01-01T13:30:58.622Z,4.37
2023-01-01T13:34:31.096Z,3.47
2023-01-01T13:37:42.815Z,4.07
2023-01-01T13:40:51.414Z,4.10
2023-01-01T13:44:10.330Z,4.60
2023-01-01T13:47:56.277Z,4.90
2023-01-01T13:51:03.690Z,4.90
2023-01-01T13:54:26.755Z,4.70
2023-01-01T13:57:47.272Z,4.30
2023-01-01T14:01:11.963Z,4.30
2023-01-01T14:04:27.991Z,4.80
2023-01-01T14:07:53.093Z,4.90
2023-01-01T14:10:54.876Z,4.90
2023-01-01T14:13:56.270Z,4.90
2023-01-01T14:17:02.272Z,4.80
2023-01-01T14:20:07.387Z,5.70
2023-01-01T14:23:16.389Z,5.60
2023-01-01T14:26:23.994Z,5.43
2023-01-01T14:29:30.672Z,5.40
2023-01-01T14:32:33.158Z,5.90
2023-01-01T14:35:34.606Z,5.70
2023-01-01T14:38:43.799Z,5.87
2023-01-01T14:41:45.218Z,5.50
2023-01-01T14:44:50.571Z,5.87
2023-01-01T14:47:55.452Z,6.00
2023-01-01T14:50:58.351Z,7.37
2023-01-01T14:54:02.836Z,7.27
2023-01-01T14:57:11.007Z,7.10
2023-01-01T15:00:42.426Z,6.90
2023-01-01T15:04:00.883Z,6.90
2023-01-01T15:07:02.258Z,6.90
2023-01-01T15:10:04.118Z,8.77
2023-01-01T15:13:07.229Z,8.40
2023-01-01T15:16:17.961Z,7.40
2023-01-01T15:19:23.109Z,7.13
2023-01-01T15:22:32.386Z,7.70
2023-01-01T15:25:36.154Z,7.97
2023-01-01T15:28:38.390Z,8.23
2023-01-01T15:31:43.491Z,8.40
2023-01-01T15:34:50.735Z,8.60
2023-01-01T15:37:57.433Z,7.80
2023-01-01T15:40:58.858Z,6.77
2023-01-01T15:44:19.140Z,7.00
2023-01-01T15:47:26.347Z,8.07
2023-01-01T15:50:35.618Z,8.50
2023-01-01T15:53:47.097Z,9.60
2023-01-01T15:56:49.447Z,8.97
2023-01-01T15:59:53.510Z,8.33
2023-01-01T16:03:00.003Z,8.27
2023-01-01T16:06:01.653Z,13.07
2023-01-01T16:09:03.222Z,13.97
2023-01-01T16:12:04.683Z,9.43
2023-01-01T16:15:06.684Z,7.63
2023-01-01T16:18:11.990Z,7.90
2023-01-01T16:21:13.435Z,7.83
2023-01-01T16:24:16.010Z,8.40
2023-01-01T16:27:17.449Z,9.37
2023-01-01T16:30:19.033Z,8.23
2023-01-01T16:33:24.268Z,9.80
2023-01-01T16:36:29.651Z,10.03
2023-01-01T16:39:31.210Z,13.20
2023-01-01T16:42:32.591Z,15.67
2023-01-01T16:45:34.071Z,16.13
2023-01-01T16:48:35.835Z,13.47
2023-01-01T16:51:40.795Z,12.50
2023-01-01T16:54:44.797Z,11.83
2023-01-01T16:57:47.919Z,13.00
2023-01-01T17:00:49.772Z,12.40
2023-01-01T17:03:51.306Z,10.70
2023-01-01T17:06:52.698Z,10.03
2023-01-01T17:09:54.167Z,7.87
2023-01-01T17:13:01.648Z,6.10
2023-01-01T17:16:03.624Z,6.57
2023-01-01T17:19:20.629Z,6.20
2023-01-01T17:22:22.015Z,6.77
2023-01-01T17:25:23.637Z,7.87
2023-01-01T17:28:25.014Z,6.83
2023-01-01T17:31:28.440Z,7.00
2023-01-01T17:34:29.965Z,6.87
2023-01-01T17:37:32.933Z,7.37
2023-01-01T17:40:37.022Z,6.80
2023-01-01T17:43:41.248Z,6.30
2023-01-01T17:46:44.074Z,6.30
2023-01-01T17:49:45.859Z,6.20
2023-01-01T17:52:47.276Z,6.37
2023-01-01T17:55:48.733Z,6.63
2023-01-01T17:58:51.955Z,5.90
2023-01-01T18:01:53.442Z,6.00
2023-01-01T18:04:54.917Z,6.50
2023-01-01T18:07:56.316Z,8.83
2023-01-01T18:10:57.831Z,8.50
2023-01-01T18:14:01.429Z,6.97
2023-01-01T18:17:03.994Z,6.43
2023-01-01T18:20:06.033Z,6.50
2023-01-01T18:23:07.455Z,6.23
2023-01-01T18:26:10.332Z,6.63
2023-01-01T18:29:12.020Z,6.00
2023-01-01T18:32:13.518Z,8.13
2023-01-01T18:35:15.394Z,7.70
2023-01-01T18:38:18.864Z,7.67
2023-01-01T18:41:31.189Z,6.23
2023-01-01T18:44:32.891Z,6.63
2023-01-01T18:47:34.303Z,6.00
2023-01-01T18:50:36.537Z,6.20
2023-01-01T18:53:37.914Z,5.67
2023-01-01T18:56:39.648Z,5.50
2023-01-01T18:59:41.087Z,5.90
2023-01-01T19:02:57.082Z,6.23
2023-01-01T19:05:59.510Z,5.97
2023-01-01T19:09:23.220Z,6.57
2023-01-01T19:12:28.326Z,6.00
2023-01-01T19:15:29.717Z,6.00
2023-01-01T19:18:33.578Z,6.43
2023-01-01T19:21:35.015Z,6.70
2023-01-01T19:24:37.137Z,12.03
2023-01-01T19:27:40.406Z,10.80
2023-01-01T19:30:43.065Z,6.97
2023-01-01T19:33:46.081Z,7.23
2023-01-01T19:36:47.769Z,6.07
2023-01-01T19:39:50.314Z,5.80
2023-01-01T19:42:51.861Z,6.30
2023-01-01T19:45:53.282Z,5.93
2023-01-01T19:48:54.836Z,6.13
2023-01-01T19:51:56.314Z,5.63
2023-01-01T19:54:57.728Z,5.53
2023-01-01T19:57:59.203Z,5.43
2023-01-01T20:01:02.844Z,5.17
2023-01-01T20:04:04.851Z,5.70
2023-01-01T20:07:06.443Z,6.10
2023-01-01T20:10:08.265Z,5.60
2023-01-01T20:13:09.822Z,5.97
2023-01-01T20:16:11.288Z,5.87
2023-01-01T20:19:12.692Z,5.47
2023-01-01T20:22:14.221Z,5.63
2023-01-01T20:25:16.356Z,6.37
2023-01-01T20:28:36.102Z,6.40
2023-01-01T20:31:37.797Z,7.13
2023-01-01T20:34:40.274Z,6.60
2023-01-01T20:37:41.798Z,6.90
2023-01-01T20:40:43.174Z,7.13
2023-01-01T20:43:44.652Z,6.93
2023-01-01T20:46:47.927Z,6.97
2023-01-01T20:49:49.346Z,7.33
2023-01-01T20:52:50.740Z,7.50
2023-01-01T20:55:52.200Z,8.33
2023-01-01T20:59:00.170Z,8.73
2023-01-01T21:02:05.567Z,8.40
2023-01-01T21:05:07.843Z,8.00
2023-01-01T21:08:09.611Z,8.20
2023-01-01T21:11:11.180Z,8.70
2023-01-01T21:14:12.637Z,8.17
2023-01-01T21:17:23.442Z,8.00
2023-01-01T21:20:34.375Z,8.30
2023-01-01T21:23:35.792Z,8.30
2023-01-01T21:26:38.085Z,8.43
2023-01-01T21:29:46.245Z,8.10
2023-01-01T21:32:49.539Z,7.80
2023-01-01T21:35:50.958Z,7.13
2023-01-01T21:38:52.362Z,7.97
2023-01-01T21:41:58.948Z,7.73
2023-01-01T21:45:00.920Z,7.50
2023-01-01T21:48:27.389Z,7.10
2023-01-01T21:51:42.310Z,7.17
2023-01-01T21:54:44.758Z,5.87
2023-01-01T21:57:46.209Z,6.90
2023-01-01T22:00:47.599Z,6.87
2023-01-01T22:04:15.382Z,6.37
2023-01-01T22:07:57.216Z,6.53
2023-01-01T22:10:50.101Z,6.40
2023-01-01T22:13:51.548Z,6.80
2023-01-01T22:16:57.228Z,6.93
2023-01-01T22:20:02.253Z,6.63
2023-01-01T22:23:21.915Z,6.53
2023-01-01T22:26:27.669Z,6.20
2023-01-01T22:29:32.008Z,6.30
2023-01-01T22:32:34.977Z,6.50
2023-01-01T22:35:36.372Z,6.40
2023-01-01T22:38:37.816Z,6.23
2023-01-01T22:41:39.907Z,6.77
2023-01-01T22:44:41.506Z,6.17
2023-01-01T22:47:46.340Z,7.73
2023-01-01T22:50:48.210Z,6.60
2023-01-01T22:53:49.639Z,6.80
2023-01-01T22:56:51.116Z,6.67
2023-01-01T22:59:52.599Z,6.17
2023-01-01T23:02:54.197Z,5.53
2023-01-01T23:05:56.549Z,6.03
2023-01-01T23:08:58.141Z,5.93
2023-01-01T23:11:59.548Z,6.03
2023-01-01T23:15:19.424Z,5.23
2023-01-01T23:18:21.137Z,5.70
2023-01-01T23:21:27.061Z,5.80
2023-01-01T23:24:30.189Z,5.80
2023-01-01T23:27:32.677Z,5.20
2023-01-01T23:30:34.136Z,5.73
2023-01-01T23:33:35.881Z,5.67
2023-01-01T23:36:38.875Z,5.83
2023-01-01T23:39:40.287Z,5.50
2023-01-01T23:42:42.006Z,5.30
2023-01-01T23:45:43.567Z,5.43
2023-01-01T23:48:46.370Z,5.90
2023-01-01T23:51:47.928Z,5.97
2023-01-01T23:54:49.345Z,5.30
2023-01-01T23:57:51.997Z,5.27
